Ararat, Virginia
Current Conditions -  °F | °C
As of 7:30 AM on Sunday 21 Dec 2014 (Local Time) from KMWK Reporting Station
Overcast Overcast  
Wind Chill:   Ceiling: 4600
Heat Index:   Visibility: 7mi
Dew Point:   Wind: 0mph
Humidity: 85%   Direction: NA
Pressure: 30.27"   Gusts: NA
Location:  36.6°N, 80.51°W
Report Text: KMWK 211230Z AUTO 00000KT 7SM OVC046 04/01 A3027 RMK AO2 T00360013
Loading
Personal Weather Stations






























Interactive Weather Map New forecast layout! Learn more

10-Day Weather Forecast

Advertisements
Track Severe Weather on mobile